Aguilares, Texas
Current Conditions -  °F | °C
As of 9:55 AM on Sunday 21 Dec 2014 (Local Time) from KHBV Reporting Station
Moderate Rain Moderate Rain  
Wind Chill: 53°   Ceiling: 1000
Heat Index: 53°   Visibility: 5mi
Dew Point: 50°   Wind: 0mph
Humidity: 89%   Direction: NA
Pressure: 30.12"   Gusts: NA
Location:  27.4459°N, 99.0184°W
Report Text: KHBV 211555Z AUTO 00000KT 5SM RA SCT006 OVC010 12/10 A3012 RMK AO2 T01190101
Loading
Personal Weather Stations






























Interactive Weather Map New forecast layout! Learn more

10-Day Weather Forecast

Advertisements
Track Severe Weather on mobile